Terminal Aerodrome Forecast
Issued by NWS Pocatello, ID

Home | Current Version | Previous Version | Text Only | Print | Product List | Glossary On
Versions: 1 2 3 4 5 6 7 8 9 10 11 12 13 14
937
FTUS45 KPIH 240520
TAFIDA
TAF
KIDA 240520Z 2406/2506 20008KT P6SM FEW050 OVC120
     FM241500 20011KT P6SM -SHRA BKN020 OVC040
     FM241900 21015G25KT P6SM -SHRA OVC020
     FM250400 21020G30KT P6SM -SHRA OVC015=

USA.gov is the U.S. government's official web portal to all federal, state and local government web resources and services.